TFM - Tactical Decision Aid (Experimental) INFO Settings
ID: Runway Winds: CIG/VIS Threshold: METAR Board: Map:

KCUB - Columbia-Jim Hamilton LB Owens

Updated at: 0400 UTC 11 Dec 2017
Latest TAF at: 0238 UTC 11 Dec 2017

TAF Board

Time0353Z11/04Z11/05Z11/06Z11/07Z11/08Z11/09Z11/10Z11/11Z11/12Z11/13Z11/14Z11/15Z11/16Z
TypeOBSPRVLPRVLPRVLPRVLPRVLPRVLPRVLPRVLPRVLPRVLPRVLPRVLPRVL
VIS5>6>6>6>6>6>6>6>6>6>6>6>6>6
CIG----------------------------
CoverCLRSKCSKCSKCSKCSKCSKCSKCSKCSKCSKCSKCSKCSKC
FltCatMVFRVFRVFRVFRVFRVFRVFRVFRVFRVFRVFRVFRVFRVFR
WXBR--------------------------
WDirVRBVRBVRBVRBVRBVRBVRBVRBVRBVRBVRBVRB250250
WSpd02222222222266
WGst----------------------------
TAF
KCUB 110238Z 1103/1124 VRB02KT P6SM SKC
  FM111500 25006KT P6SM SKC


METAR
KCUB 110353Z AUTO 00000KT 5SM BR CLR 00/M01 A3022 RMK AO2 SLP235 T00001011
KCUB 110253Z AUTO 00000KT 10SM CLR 01/M01 A3022 RMK AO2 SLP234 T00061011 53003

TAF/METAR Board Legend

Potential Impact
  None Marginal Slight Moderate High
Visibility (sm) >5 3≤X≤5 2≤X<3 1≤X<2 <1
Ceiling (100 ft) >30 10≤X≤30 8≤X<10 5≤X<8 <5
Wind Speed (kt) <10 10≤X<20 20≤X<30 ≥30
Wind Gust (kt) <15 15≤X<25 25≤X<35 ≥35
Weather No Wx Reported VCTS -TS,-FZRA TS,FZRA +TS,+FZRA